Time;durP1;ratioP1;P1;durP2;ratioP2;P2;SDS_P1;SDS_P2;PMS_P1;PMS_P2;Temp;Humidity;BMP_temperature;BMP_pressure;BME280_temperature;BME280_humidity;BME280_pressure;Samples;Min_cycle;Max_cycle;Signal;HPM_P1;HPM_P2
2020/12/28 00:00:09;;;;;;;1.00;1.00;;;5.90;99.90;;;;;;3610636;39;20244;-77
2020/12/28 00:02:36;;;;;;;1.15;1.05;;;5.80;99.90;;;;;;3609808;39;20294;-76
2020/12/28 00:05:07;;;;;;;7.95;1.25;;;5.70;99.90;;;;;;3609500;39;20385;-77
2020/12/28 00:07:34;;;;;;;1.42;1.33;;;5.70;99.90;;;;;;3613253;39;20271;-77
2020/12/28 00:10:00;;;;;;;1.10;1.10;;;5.60;99.90;;;;;;3609693;39;20272;-76
2020/12/28 00:12:57;;;;;;;1.05;1.05;;;5.50;99.90;;;;;;3611484;39;20275;-77
2020/12/28 00:15:27;;;;;;;0.70;0.70;;;5.50;99.90;;;;;;3609491;39;20256;-77
2020/12/28 00:17:55;;;;;;;0.60;0.60;;;5.40;99.90;;;;;;3611889;39;20252;-77
2020/12/28 00:20:24;;;;;;;1.38;1.20;;;5.30;99.90;;;;;;3611439;39;20253;-77
2020/12/28 00:22:50;;;;;;;0.95;0.95;;;5.20;99.90;;;;;;3614343;39;20277;-77
2020/12/28 00:25:19;;;;;;;9.82;1.30;;;5.30;99.90;;;;;;3611299;39;20306;-76
2020/12/28 00:27:46;;;;;;;0.93;0.93;;;5.30;99.90;;;;;;3612192;39;20893;-76
2020/12/28 00:30:12;;;;;;;1.10;1.10;;;5.30;99.90;;;;;;3616050;39;20272;-76
2020/12/28 00:32:40;;;;;;;1.35;1.10;;;5.40;99.90;;;;;;3611269;39;20252;-76
2020/12/28 00:35:08;;;;;;;0.88;0.88;;;5.40;99.90;;;;;;3612125;39;20248;-76
2020/12/28 00:37:35;;;;;;;1.00;1.00;;;5.40;99.90;;;;;;3611336;39;20261;-76
2020/12/28 00:43:49;;;;;;;0.90;0.90;;;5.40;99.90;;;;;;3614901;32;20299;-76
2020/12/28 00:46:33;;;;;;;1.50;1.10;;;5.50;99.90;;;;;;3594449;40;20294;-76
2020/12/28 00:49:00;;;;;;;1.65;1.40;;;5.50;99.90;;;;;;3591626;40;20890;-76
2020/12/28 00:51:27;;;;;;;1.60;1.50;;;5.60;99.90;;;;;;3588440;40;20255;-76
2020/12/28 00:53:53;;;;;;;1.73;1.23;;;5.60;99.90;;;;;;3588457;40;20362;-76
2020/12/28 00:56:19;;;;;;;1.10;1.00;;;5.70;99.90;;;;;;3590345;40;20290;-76
2020/12/28 00:58:46;;;;;;;1.27;1.00;;;5.70;99.90;;;;;;3593151;40;20245;-76
2020/12/28 01:01:12;;;;;;;1.73;0.70;;;5.60;99.90;;;;;;3605811;32;20269;-76
2020/12/28 01:03:39;;;;;;;0.88;0.88;;;5.60;99.90;;;;;;3591310;40;20297;-76
2020/12/28 01:06:06;;;;;;;1.38;1.30;;;5.60;99.90;;;;;;3593383;40;20342;-76
2020/12/28 01:08:33;;;;;;;1.35;1.25;;;5.50;99.90;;;;;;3591409;40;20286;-76
2020/12/28 01:10:59;;;;;;;1.35;1.23;;;5.60;99.90;;;;;;3590820;40;20357;-76
2020/12/28 01:13:25;;;;;;;1.42;1.33;;;5.60;99.90;;;;;;3588344;40;20257;-76
2020/12/28 01:15:52;;;;;;;1.10;1.10;;;5.60;99.90;;;;;;3588222;40;20364;-76
2020/12/28 01:18:18;;;;;;;1.10;1.00;;;5.70;99.90;;;;;;3594763;40;20283;-76
2020/12/28 01:20:45;;;;;;;1.10;1.10;;;5.60;99.90;;;;;;3608413;39;20340;-76
2020/12/28 01:23:12;;;;;;;1.88;1.10;;;5.60;99.90;;;;;;3613896;39;20271;-76
2020/12/28 01:25:38;;;;;;;0.70;0.70;;;5.60;99.90;;;;;;3611124;39;20395;-76
2020/12/28 01:28:05;;;;;;;1.10;0.70;;;5.60;99.90;;;;;;3610578;39;20256;-76
2020/12/28 01:30:31;;;;;;;2.15;1.25;;;5.50;99.90;;;;;;3614379;39;20595;-76
2020/12/28 01:33:01;;;;;;;1.10;1.00;;;5.50;99.90;;;;;;3612507;39;20649;-76
2020/12/28 01:35:28;;;;;;;0.70;0.70;;;5.50;99.90;;;;;;3617854;32;20571;-77
2020/12/28 01:37:55;;;;;;;0.75;0.75;;;5.40;99.90;;;;;;3611011;39;20256;-76
2020/12/28 01:40:22;;;;;;;1.25;0.80;;;5.30;99.90;;;;;;3611907;39;20819;-76
2020/12/28 01:42:48;;;;;;;0.60;0.60;;;5.30;99.90;;;;;;3622629;32;20244;-76
2020/12/28 01:45:15;;;;;;;0.70;0.63;;;5.30;99.90;;;;;;3610864;39;20247;-76
2020/12/28 01:47:41;;;;;;;0.70;0.70;;;5.20;99.90;;;;;;3610651;39;20291;-76
2020/12/28 01:50:08;;;;;;;2.33;0.65;;;5.20;99.90;;;;;;3614233;39;20259;-76
2020/12/28 01:52:34;;;;;;;1.17;1.17;;;5.10;99.90;;;;;;3612382;39;20248;-76
2020/12/28 01:55:01;;;;;;;0.95;0.95;;;5.10;99.90;;;;;;3611274;39;20328;-76
2020/12/28 01:57:28;;;;;;;1.10;1.10;;;5.10;99.90;;;;;;3620451;32;20255;-76
2020/12/28 01:59:55;;;;;;;1.10;1.10;;;5.10;99.90;;;;;;3610674;39;20280;-76
2020/12/28 02:02:23;;;;;;;0.93;0.93;;;5.20;99.90;;;;;;3612648;39;20271;-76
2020/12/28 02:04:49;;;;;;;1.10;1.10;;;5.10;99.90;;;;;;3594956;40;20283;-76
2020/12/28 02:07:18;;;;;;;0.70;0.70;;;5.10;99.90;;;;;;3595144;40;20286;-76
2020/12/28 02:09:51;;;;;;;1.00;1.00;;;5.10;99.90;;;;;;3594712;40;20344;-76
2020/12/28 02:12:20;;;;;;;1.27;1.17;;;5.10;99.90;;;;;;3593253;40;20278;-76
2020/12/28 02:14:47;;;;;;;1.20;1.10;;;5.00;99.90;;;;;;3592439;40;20274;-76
2020/12/28 02:17:14;;;;;;;0.90;0.90;;;5.00;99.90;;;;;;3591472;39;20249;-76
2020/12/28 02:19:40;;;;;;;1.48;1.38;;;4.90;99.90;;;;;;3590255;40;20272;-75
2020/12/28 02:22:08;;;;;;;1.00;0.90;;;5.00;99.90;;;;;;3596615;39;20245;-76
2020/12/28 02:24:34;;;;;;;1.00;1.00;;;5.00;99.90;;;;;;3590630;40;20261;-76
2020/12/28 02:27:00;;;;;;;0.90;0.70;;;5.10;99.90;;;;;;3595630;39;20288;-76
2020/12/28 02:29:27;;;;;;;0.70;0.70;;;5.20;99.90;;;;;;3594662;40;20260;-76
2020/12/28 02:31:54;;;;;;;0.77;0.60;;;5.30;99.90;;;;;;3592199;40;20387;-76
2020/12/28 02:34:20;;;;;;;0.98;0.98;;;5.30;99.90;;;;;;3592753;39;20331;-76
2020/12/28 02:36:47;;;;;;;0.60;0.50;;;5.40;99.90;;;;;;3596109;40;20400;-77
2020/12/28 02:39:14;;;;;;;0.75;0.75;;;5.40;99.90;;;;;;3593491;40;20271;-76
2020/12/28 02:41:40;;;;;;;1.02;0.70;;;5.40;99.90;;;;;;3595359;39;20281;-76
2020/12/28 02:44:07;;;;;;;0.60;0.60;;;5.50;99.90;;;;;;3596514;39;20278;-76
2020/12/28 02:46:33;;;;;;;0.70;0.70;;;5.60;99.90;;;;;;3594050;39;20249;-76
2020/12/28 02:49:00;;;;;;;0.60;0.50;;;5.60;99.90;;;;;;3592098;40;20872;-76
2020/12/28 02:51:26;;;;;;;1.58;0.77;;;5.70;99.90;;;;;;3593466;39;20244;-76
2020/12/28 02:53:53;;;;;;;0.60;0.60;;;5.80;99.90;;;;;;3593442;39;20248;-76
2020/12/28 02:56:20;;;;;;;1.70;0.60;;;5.80;99.90;;;;;;3591169;39;20270;-76
2020/12/28 02:58:47;;;;;;;0.90;0.60;;;5.80;99.90;;;;;;3590024;40;20294;-76
2020/12/28 03:01:13;;;;;;;0.90;0.90;;;5.80;99.90;;;;;;3595779;40;20351;-76
2020/12/28 03:03:40;;;;;;;0.93;0.93;;;5.80;99.90;;;;;;3601616;39;20278;-77
2020/12/28 03:06:06;;;;;;;1.40;0.90;;;5.90;99.90;;;;;;3617162;39;20266;-77
2020/12/28 03:08:33;;;;;;;0.60;0.60;;;5.90;99.90;;;;;;3610782;39;20264;-77
2020/12/28 03:10:59;;;;;;;2.15;0.65;;;5.90;99.90;;;;;;3610599;39;20256;-77
2020/12/28 03:13:26;;;;;;;1.23;1.17;;;5.90;99.90;;;;;;3611651;39;20259;-77
2020/12/28 03:15:53;;;;;;;1.00;0.90;;;5.90;99.90;;;;;;3613747;39;20360;-77
2020/12/28 03:18:19;;;;;;;2.28;1.00;;;5.90;99.90;;;;;;3614184;39;20287;-77
2020/12/28 03:20:46;;;;;;;1.02;1.02;;;5.80;99.90;;;;;;3610884;39;20249;-77
2020/12/28 03:23:12;;;;;;;1.13;1.10;;;5.70;99.90;;;;;;3613506;39;20344;-77
2020/12/28 03:25:41;;;;;;;2.17;1.20;;;5.70;99.90;;;;;;3610086;39;20263;-77
2020/12/28 03:28:08;;;;;;;0.90;0.90;;;5.60;99.90;;;;;;3612983;39;20252;-77
2020/12/28 03:30:35;;;;;;;1.20;1.10;;;5.50;99.90;;;;;;3636153;32;20819;-77
2020/12/28 03:33:01;;;;;;;0.90;0.90;;;5.50;99.90;;;;;;3611473;39;20274;-77
2020/12/28 03:35:28;;;;;;;1.10;1.00;;;5.60;99.90;;;;;;3612917;39;20236;-77
2020/12/28 03:37:54;;;;;;;1.48;1.48;;;5.60;99.90;;;;;;3610608;39;20278;-77
2020/12/28 03:40:21;;;;;;;4.60;1.35;;;5.70;99.90;;;;;;3609626;39;20272;-77
2020/12/28 03:42:47;;;;;;;1.20;1.10;;;5.80;99.90;;;;;;3619542;32;20270;-76
2020/12/28 03:45:14;;;;;;;1.13;1.02;;;5.80;99.90;;;;;;3610937;39;20278;-76
2020/12/28 03:47:41;;;;;;;1.17;1.08;;;5.90;99.90;;;;;;3611749;39;20260;-76
2020/12/28 03:50:10;;;;;;;1.00;1.00;;;5.90;99.90;;;;;;3611892;39;21041;-76
2020/12/28 03:52:39;;;;;;;1.13;1.13;;;5.80;99.90;;;;;;3615434;39;20252;-76
2020/12/28 03:55:06;;;;;;;1.17;1.17;;;5.80;99.90;;;;;;3619347;31;20318;-76
2020/12/28 03:57:32;;;;;;;5.68;0.90;;;5.80;99.90;;;;;;3612392;39;20274;-77
2020/12/28 03:59:59;;;;;;;1.00;1.00;;;5.80;99.90;;;;;;3612383;39;20256;-77
2020/12/28 04:02:25;;;;;;;1.15;1.10;;;5.80;99.90;;;;;;3612072;39;20274;-77
2020/12/28 04:04:53;;;;;;;1.25;1.25;;;5.80;99.90;;;;;;3612562;39;20263;-77
2020/12/28 04:07:20;;;;;;;1.10;1.10;;;5.80;99.90;;;;;;3613093;39;20284;-77
2020/12/28 04:09:46;;;;;;;3.25;0.90;;;5.70;99.90;;;;;;3611636;39;20325;-77
2020/12/28 04:12:13;;;;;;;1.30;1.15;;;5.70;99.90;;;;;;3611791;39;20244;-77
2020/12/28 04:14:40;;;;;;;1.45;1.35;;;5.60;99.90;;;;;;3612177;39;20730;-77
2020/12/28 04:17:06;;;;;;;1.60;0.90;;;5.70;99.90;;;;;;3617100;39;20274;-77
2020/12/28 04:19:33;;;;;;;1.33;1.23;;;5.70;99.90;;;;;;3611493;39;20240;-77
2020/12/28 04:22:00;;;;;;;1.13;1.13;;;5.80;99.90;;;;;;3615784;39;20260;-77
2020/12/28 04:24:27;;;;;;;1.30;1.20;;;5.70;99.90;;;;;;3612655;39;20306;-77
2020/12/28 04:26:53;;;;;;;0.93;0.93;;;5.70;99.90;;;;;;3611833;39;20237;-77
2020/12/28 04:29:19;;;;;;;1.50;1.42;;;5.70;99.90;;;;;;3637108;32;20256;-77
2020/12/28 04:31:46;;;;;;;1.20;1.10;;;5.70;99.90;;;;;;3611810;39;20248;-77
2020/12/28 04:34:12;;;;;;;1.20;1.10;;;5.70;99.90;;;;;;3612474;39;20278;-77
2020/12/28 04:36:39;;;;;;;0.88;0.88;;;5.70;99.90;;;;;;3611418;39;20281;-77
2020/12/28 04:39:07;;;;;;;1.40;1.40;;;5.70;99.90;;;;;;3616395;32;20353;-77
2020/12/28 04:41:34;;;;;;;2.03;1.10;;;5.70;99.90;;;;;;3616609;39;20252;-77
2020/12/28 04:44:01;;;;;;;0.95;0.90;;;5.80;99.90;;;;;;3611996;39;20272;-77
2020/12/28 04:46:29;;;;;;;1.15;1.05;;;6.00;99.90;;;;;;3612151;39;20257;-77
2020/12/28 04:48:56;;;;;;;1.30;1.20;;;6.00;99.90;;;;;;3612274;39;20278;-77
2020/12/28 04:51:23;;;;;;;1.52;1.42;;;6.00;99.90;;;;;;3612570;39;20240;-77
2020/12/28 04:53:52;;;;;;;1.20;1.10;;;6.10;99.90;;;;;;3614439;39;20237;-77
2020/12/28 04:56:20;;;;;;;1.27;1.20;;;6.10;99.90;;;;;;3613410;39;20240;-77
2020/12/28 04:58:47;;;;;;;1.10;1.10;;;6.20;99.90;;;;;;3610441;39;20264;-77
2020/12/28 05:01:14;;;;;;;1.13;1.13;;;6.20;99.90;;;;;;3611410;39;20248;-76
2020/12/28 05:03:40;;;;;;;1.55;1.10;;;6.20;99.90;;;;;;3612783;39;20251;-76
2020/12/28 05:06:07;;;;;;;1.58;1.48;;;6.20;99.90;;;;;;3611008;39;20240;-75
2020/12/28 05:08:34;;;;;;;1.40;1.30;;;6.10;99.90;;;;;;3611768;39;20321;-76
2020/12/28 05:11:07;;;;;;;2.00;1.58;;;6.10;99.90;;;;;;3611126;39;20332;-76
2020/12/28 05:13:35;;;;;;;1.52;1.42;;;6.10;99.90;;;;;;3613705;39;20278;-76
2020/12/28 05:16:01;;;;;;;1.27;1.27;;;6.10;99.90;;;;;;3614358;39;20260;-76
2020/12/28 05:18:28;;;;;;;1.75;1.60;;;6.10;99.90;;;;;;3610674;39;20771;-76
2020/12/28 05:20:55;;;;;;;1.42;1.33;;;6.10;99.90;;;;;;3612748;39;20259;-76
2020/12/28 05:23:21;;;;;;;1.50;1.40;;;6.20;99.90;;;;;;3611022;39;20260;-76
2020/12/28 05:25:49;;;;;;;1.88;1.15;;;6.30;99.90;;;;;;3610946;39;20287;-76
2020/12/28 05:28:17;;;;;;;1.50;1.40;;;6.30;99.90;;;;;;3623281;32;20270;-74
2020/12/28 05:30:45;;;;;;;1.50;1.40;;;6.30;99.90;;;;;;3612694;39;20268;-76
2020/12/28 05:33:13;;;;;;;1.58;1.48;;;6.20;99.90;;;;;;3619914;32;20352;-76
2020/12/28 05:35:40;;;;;;;1.48;1.38;;;6.10;99.90;;;;;;3610630;39;20278;-76
2020/12/28 05:38:08;;;;;;;2.10;1.52;;;6.10;99.90;;;;;;3611015;39;20298;-76
2020/12/28 05:40:35;;;;;;;1.50;1.40;;;6.20;99.90;;;;;;3610826;39;20248;-76
2020/12/28 05:43:02;;;;;;;1.65;1.55;;;6.10;99.90;;;;;;3610796;39;20732;-76
2020/12/28 05:45:28;;;;;;;6.40;1.70;;;6.20;99.90;;;;;;3613465;39;20281;-76
2020/12/28 05:47:57;;;;;;;3.15;1.48;;;6.20;99.90;;;;;;3613551;39;20302;-76
2020/12/28 05:50:26;;;;;;;1.42;1.42;;;6.30;99.90;;;;;;3615966;32;20364;-76
2020/12/28 05:52:54;;;;;;;1.70;1.60;;;6.30;99.90;;;;;;3610921;39;20256;-76
2020/12/28 05:55:23;;;;;;;1.65;1.55;;;6.30;99.90;;;;;;3611422;39;20248;-76
2020/12/28 05:57:49;;;;;;;1.67;1.58;;;6.40;99.90;;;;;;3610661;39;20259;-76
2020/12/28 06:00:16;;;;;;;1.60;1.50;;;6.40;99.90;;;;;;3627566;31;20262;-76
2020/12/28 06:02:43;;;;;;;1.65;1.55;;;6.40;99.90;;;;;;3613243;39;20264;-76
2020/12/28 06:05:15;;;;;;;1.67;1.58;;;6.40;99.90;;;;;;3610596;39;20264;-77
2020/12/28 06:07:42;;;;;;;1.77;1.67;;;6.40;99.90;;;;;;3610813;39;20279;-76
2020/12/28 06:10:10;;;;;;;3.33;2.10;;;6.40;99.90;;;;;;3610187;39;20255;-76
2020/12/28 06:12:37;;;;;;;1.60;1.38;;;6.50;99.90;;;;;;3612662;39;20235;-76
2020/12/28 06:15:04;;;;;;;1.90;1.80;;;6.40;99.90;;;;;;3613107;39;20285;-76
2020/12/28 06:17:35;;;;;;;1.77;1.67;;;6.40;99.90;;;;;;3610305;39;20272;-76
2020/12/28 06:20:11;;;;;;;1.98;1.80;;;6.30;99.90;;;;;;3621006;31;20267;-76
2020/12/28 06:22:40;;;;;;;3.10;2.03;;;6.30;99.90;;;;;;3610804;39;20361;-76
2020/12/28 06:25:07;;;;;;;1.80;1.70;;;6.30;99.90;;;;;;3613643;39;20279;-76
2020/12/28 06:27:35;;;;;;;1.63;1.52;;;6.30;99.90;;;;;;3612305;39;20394;-76
2020/12/28 06:30:13;;;;;;;2.03;1.83;;;6.20;99.90;;;;;;3610330;39;20352;-76
2020/12/28 06:32:40;;;;;;;2.03;1.83;;;6.20;99.90;;;;;;3611073;39;20302;-76
2020/12/28 06:35:08;;;;;;;2.40;2.20;;;6.10;99.90;;;;;;3615074;39;20236;-76
2020/12/28 06:37:40;;;;;;;3.42;1.83;;;6.10;99.90;;;;;;3615302;39;20248;-76
2020/12/28 06:40:13;;;;;;;2.70;1.63;;;6.10;99.90;;;;;;3610440;39;20260;-76
2020/12/28 06:42:40;;;;;;;2.55;1.67;;;6.00;99.90;;;;;;3610113;39;20244;-76
2020/12/28 06:45:15;;;;;;;1.90;1.70;;;6.00;99.90;;;;;;3612114;39;20267;-76
2020/12/28 06:47:42;;;;;;;2.38;2.17;;;6.00;99.90;;;;;;3613661;39;20282;-76
2020/12/28 06:50:08;;;;;;;6.25;2.17;;;5.90;99.90;;;;;;3625466;32;20295;-76
2020/12/28 06:52:35;;;;;;;2.70;2.33;;;5.90;99.90;;;;;;3610481;39;20260;-76
2020/12/28 06:55:12;;;;;;;2.30;2.13;;;5.90;99.90;;;;;;3612806;39;20260;-76
2020/12/28 06:57:38;;;;;;;2.97;1.73;;;5.90;99.90;;;;;;3610699;39;20268;-76
2020/12/28 07:00:18;;;;;;;3.75;2.25;;;5.90;99.90;;;;;;3612109;39;21203;-76
2020/12/28 07:02:49;;;;;;;2.33;1.88;;;5.90;99.90;;;;;;3610354;39;20260;-76
2020/12/28 07:05:21;;;;;;;1.60;1.50;;;5.90;99.90;;;;;;3610783;39;20287;-76
2020/12/28 07:07:48;;;;;;;1.90;1.80;;;5.90;99.90;;;;;;3611157;39;20264;-76
2020/12/28 07:10:20;;;;;;;1.83;1.55;;;5.90;99.90;;;;;;3611099;39;20274;-76
2020/12/28 07:12:46;;;;;;;1.92;1.70;;;5.80;99.90;;;;;;3610711;39;20237;-76
2020/12/28 07:15:14;;;;;;;1.67;1.58;;;5.80;99.90;;;;;;3609921;39;20256;-76
2020/12/28 07:17:40;;;;;;;2.35;1.88;;;5.80;99.90;;;;;;3616130;39;20264;-76
2020/12/28 07:20:11;;;;;;;1.52;1.42;;;5.80;99.90;;;;;;3610580;39;20272;-76
2020/12/28 07:22:39;;;;;;;1.73;1.63;;;5.70;99.90;;;;;;3614365;39;20240;-76
2020/12/28 07:25:08;;;;;;;2.47;2.28;;;5.80;99.90;;;;;;3639967;32;20484;-76
2020/12/28 07:27:35;;;;;;;3.30;1.70;;;5.80;99.90;;;;;;3612704;39;20274;-76
2020/12/28 07:30:06;;;;;;;2.92;2.28;;;5.80;99.90;;;;;;3613254;39;20347;-76
2020/12/28 07:32:33;;;;;;;1.73;1.40;;;5.80;99.90;;;;;;3615011;39;20280;-79
2020/12/28 07:34:59;;;;;;;2.22;1.70;;;5.80;99.90;;;;;;3617065;39;20108;-78
2020/12/28 07:37:28;;;;;;;2.30;1.98;;;5.80;99.90;;;;;;3612800;39;20256;-78
2020/12/28 07:39:55;;;;;;;1.77;1.67;;;5.70;99.90;;;;;;3612937;39;20348;-77
2020/12/28 07:42:23;;;;;;;2.58;1.88;;;5.60;99.90;;;;;;3612586;39;20260;-77
2020/12/28 07:44:55;;;;;;;2.08;1.65;;;5.60;99.90;;;;;;3613767;39;20286;-77
2020/12/28 07:47:31;;;;;;;2.45;2.05;;;5.70;99.90;;;;;;3615697;39;20650;-77
2020/12/28 07:50:02;;;;;;;6.80;1.90;;;5.70;99.90;;;;;;3612888;39;20248;-77
2020/12/28 07:52:31;;;;;;;2.35;1.70;;;5.70;99.90;;;;;;3612269;39;20249;-77
2020/12/28 07:55:05;;;;;;;3.13;1.67;;;5.70;99.90;;;;;;3615444;39;20866;-76
2020/12/28 07:57:42;;;;;;;4.40;1.85;;;5.70;99.90;;;;;;3614245;39;20260;-77
2020/12/28 08:00:13;;;;;;;3.45;2.00;;;5.80;99.90;;;;;;3612671;39;20281;-77
2020/12/28 08:03:19;;;;;;;1.80;1.52;;;5.80;99.90;;;;;;3611921;39;20284;-77
2020/12/28 08:05:48;;;;;;;5.32;3.25;;;5.80;99.90;;;;;;3615115;39;20379;-77
2020/12/28 08:08:22;;;;;;;4.38;3.20;;;5.80;99.90;;;;;;3612575;39;20248;-77
2020/12/28 08:10:53;;;;;;;4.97;3.00;;;5.80;99.90;;;;;;3612508;39;20251;-77
2020/12/28 08:13:28;;;;;;;3.10;2.90;;;5.80;99.90;;;;;;3614797;39;20286;-77
2020/12/28 08:15:56;;;;;;;3.13;2.10;;;5.80;99.90;;;;;;3612280;39;20403;-77
2020/12/28 08:18:22;;;;;;;1.92;1.83;;;5.90;99.90;;;;;;3612644;39;20244;-77
2020/12/28 08:20:58;;;;;;;2.92;2.17;;;6.00;99.90;;;;;;3612475;39;20240;-77
2020/12/28 08:23:26;;;;;;;3.30;1.60;;;5.90;99.90;;;;;;3612972;39;20263;-77
2020/12/28 08:25:53;;;;;;;2.92;1.20;;;5.80;99.90;;;;;;3612026;39;20280;-77
2020/12/28 08:28:20;;;;;;;1.90;1.30;;;5.80;99.90;;;;;;3612143;39;20291;-77
2020/12/28 08:30:47;;;;;;;6.75;1.88;;;5.70;99.90;;;;;;3611891;39;20244;-77
2020/12/28 08:33:18;;;;;;;1.95;1.67;;;5.70;99.90;;;;;;3611730;39;20256;-77
2020/12/28 08:35:49;;;;;;;2.67;1.70;;;5.70;99.90;;;;;;3611459;39;20244;-77
2020/12/28 08:38:15;;;;;;;1.83;1.73;;;5.60;99.90;;;;;;3611387;39;20248;-77
2020/12/28 08:40:42;;;;;;;1.90;1.80;;;5.60;99.90;;;;;;3611659;39;20240;-77
2020/12/28 08:43:10;;;;;;;4.80;1.60;;;5.60;99.90;;;;;;3627930;32;20314;-77
2020/12/28 08:45:36;;;;;;;2.75;1.30;;;5.60;99.90;;;;;;3626624;32;20252;-77
2020/12/28 08:48:03;;;;;;;1.75;1.38;;;5.70;99.90;;;;;;3612156;39;20260;-77
2020/12/28 08:50:35;;;;;;;3.28;1.10;;;5.60;99.90;;;;;;3611835;39;20336;-77
2020/12/28 08:53:02;;;;;;;1.50;1.40;;;5.60;99.90;;;;;;3616876;39;20240;-77
2020/12/28 08:55:28;;;;;;;1.45;1.35;;;5.50;99.90;;;;;;3611967;39;20282;-77
2020/12/28 08:57:56;;;;;;;1.92;1.15;;;5.40;99.90;;;;;;3610876;39;20263;-77
2020/12/28 09:00:24;;;;;;;1.00;0.90;;;5.30;99.90;;;;;;3611620;39;20237;-77
2020/12/28 09:02:52;;;;;;;1.85;1.10;;;5.30;99.90;;;;;;3610754;39;20920;-77
2020/12/28 09:05:19;;;;;;;1.42;1.10;;;5.30;99.90;;;;;;3610458;39;20279;-77
2020/12/28 09:07:47;;;;;;;1.38;1.08;;;5.30;99.90;;;;;;3610380;39;20329;-77
2020/12/28 09:10:13;;;;;;;4.80;1.20;;;5.30;99.90;;;;;;3611230;39;20359;-77
2020/12/28 09:12:40;;;;;;;1.52;1.42;;;5.30;99.90;;;;;;3611721;39;20758;-77
2020/12/28 09:15:08;;;;;;;3.90;1.35;;;5.40;99.90;;;;;;3611460;39;20287;-77
2020/12/28 09:17:34;;;;;;;1.15;1.15;;;5.50;99.90;;;;;;3611982;39;20256;-77
2020/12/28 09:20:01;;;;;;;2.30;1.50;;;5.60;99.90;;;;;;3612099;39;20302;-77
2020/12/28 09:22:27;;;;;;;2.15;1.30;;;5.70;99.90;;;;;;3611279;39;20286;-77
2020/12/28 09:24:54;;;;;;;1.65;1.55;;;5.90;99.90;;;;;;3611749;39;20265;-77
2020/12/28 09:27:21;;;;;;;1.50;1.20;;;6.20;99.90;;;;;;3611667;39;20286;-77
2020/12/28 09:29:48;;;;;;;1.95;1.55;;;6.60;99.90;;;;;;3616314;39;20244;-77
2020/12/28 09:32:14;;;;;;;3.53;1.48;;;6.80;99.90;;;;;;3613960;39;20399;-77
2020/12/28 09:34:41;;;;;;;2.13;1.70;;;7.10;99.90;;;;;;3611250;39;20244;-77
2020/12/28 09:37:08;;;;;;;1.60;1.50;;;7.40;99.90;;;;;;3613977;39;20251;-77
2020/12/28 09:39:36;;;;;;;2.45;1.30;;;7.90;99.90;;;;;;3614758;39;20359;-78
2020/12/28 09:42:05;;;;;;;1.00;0.90;;;8.20;99.90;;;;;;3612358;39;20240;-77
2020/12/28 09:44:32;;;;;;;5.40;1.20;;;8.60;99.90;;;;;;3615533;39;20255;-78
2020/12/28 09:46:59;;;;;;;3.42;0.85;;;9.10;99.90;;;;;;3615784;39;20248;-78
2020/12/28 09:49:26;;;;;;;1.15;0.70;;;9.70;99.90;;;;;;3617468;39;20348;-79
2020/12/28 09:51:53;;;;;;;2.25;0.90;;;10.20;99.90;;;;;;3613395;39;20252;-78
2020/12/28 09:54:20;;;;;;;0.73;0.70;;;10.60;99.90;;;;;;3615720;39;20267;-78
2020/12/28 09:56:47;;;;;;;2.15;1.10;;;10.70;99.90;;;;;;3613283;39;20313;-78
2020/12/28 09:59:14;;;;;;;1.15;1.05;;;10.80;99.90;;;;;;3612536;39;20350;-78
2020/12/28 10:02:20;;;;;;;0.88;0.88;;;11.00;99.90;;;;;;3612731;39;20261;-78
2020/12/28 10:04:47;;;;;;;1.10;1.08;;;11.20;99.90;;;;;;3610391;39;20272;-79
2020/12/28 10:07:13;;;;;;;1.00;1.00;;;11.30;99.90;;;;;;3615135;39;20411;-78
2020/12/28 10:09:40;;;;;;;1.88;1.15;;;11.50;99.90;;;;;;3618461;39;20301;-78
2020/12/28 10:12:06;;;;;;;1.17;0.73;;;11.60;99.90;;;;;;3612687;39;20271;-78
2020/12/28 10:14:33;;;;;;;7.97;2.58;;;11.40;99.90;;;;;;3614988;39;20240;-78
2020/12/28 10:17:00;;;;;;;1.30;0.73;;;11.20;99.90;;;;;;3614584;39;20280;-78
2020/12/28 10:19:26;;;;;;;1.00;0.75;;;11.20;99.90;;;;;;3617710;39;20272;-77
2020/12/28 10:21:53;;;;;;;0.80;0.80;;;11.10;99.90;;;;;;3615251;39;20255;-77
2020/12/28 10:24:19;;;;;;;1.30;1.20;;;10.80;99.90;;;;;;3610411;39;20268;-77
2020/12/28 10:26:46;;;;;;;1.50;1.08;;;10.40;99.90;;;;;;3619578;39;20259;-77
2020/12/28 10:29:12;;;;;;;3.42;0.90;;;9.90;99.90;;;;;;3620432;39;20264;-77
2020/12/28 10:31:40;;;;;;;0.95;0.82;;;9.30;99.90;;;;;;3618467;39;20295;-77
2020/12/28 10:34:06;;;;;;;3.20;0.80;;;8.90;99.90;;;;;;3620923;39;20344;-77
2020/12/28 10:36:33;;;;;;;2.88;1.10;;;8.70;99.90;;;;;;3611257;39;20330;-77
2020/12/28 10:39:00;;;;;;;1.73;0.80;;;8.50;99.90;;;;;;3610963;39;20364;-77
2020/12/28 10:41:28;;;;;;;1.42;0.85;;;8.20;99.90;;;;;;3611797;39;20306;-77
2020/12/28 10:43:55;;;;;;;1.23;1.02;;;7.90;99.90;;;;;;3610420;39;20272;-77
2020/12/28 10:46:22;;;;;;;2.20;1.10;;;7.80;99.90;;;;;;3612330;39;20369;-77
2020/12/28 10:48:50;;;;;;;0.80;0.80;;;7.60;99.90;;;;;;3613477;39;20248;-77
2020/12/28 10:51:17;;;;;;;1.05;1.02;;;7.40;99.90;;;;;;3616547;39;20360;-77
2020/12/28 10:53:43;;;;;;;1.42;0.90;;;7.40;99.90;;;;;;3610439;39;20292;-77
2020/12/28 10:56:10;;;;;;;2.10;1.02;;;7.20;99.90;;;;;;3609437;39;20290;-77
2020/12/28 10:58:37;;;;;;;1.48;1.38;;;7.20;99.90;;;;;;3612534;39;20284;-77
2020/12/28 11:01:08;;;;;;;2.67;1.10;;;7.10;99.90;;;;;;3614429;39;20256;-77
2020/12/28 11:30:33;;;;;;;4.00;1.35;;;7.20;99.90;;;;;;3657641;31;20748;-76
2020/12/28 11:33:00;;;;;;;1.50;1.40;;;7.20;99.90;;;;;;3628215;39;20267;-77
2020/12/28 11:35:26;;;;;;;1.50;1.40;;;7.20;99.90;;;;;;3631339;39;20247;-75
2020/12/28 11:37:53;;;;;;;2.53;1.60;;;7.20;99.90;;;;;;3633530;39;20247;-77
2020/12/28 11:40:20;;;;;;;1.65;1.10;;;7.20;99.90;;;;;;3630685;39;20335;-76
2020/12/28 11:42:51;;;;;;;5.28;1.30;;;7.20;99.90;;;;;;3633703;39;20274;-75
2020/12/28 11:45:18;;;;;;;1.10;1.10;;;7.20;99.90;;;;;;3633926;39;20259;-76
2020/12/28 11:47:46;;;;;;;1.40;1.00;;;7.10;99.90;;;;;;3649779;31;20384;-76
2020/12/28 11:50:15;;;;;;;1.50;1.40;;;7.20;99.90;;;;;;3632236;39;20283;-77
2020/12/28 11:52:42;;;;;;;1.65;1.40;;;7.20;99.90;;;;;;3624739;39;20304;-76
2020/12/28 11:55:08;;;;;;;2.83;1.42;;;7.20;99.90;;;;;;3626672;39;20252;-76
2020/12/28 11:57:35;;;;;;;2.03;1.17;;;7.10;99.90;;;;;;3649382;31;20270;-76
2020/12/28 12:00:01;;;;;;;3.08;1.05;;;7.10;99.90;;;;;;3629318;39;20267;-76
2020/12/28 12:02:28;;;;;;;1.25;0.85;;;7.00;99.90;;;;;;3629382;39;20359;-76
2020/12/28 12:04:55;;;;;;;1.45;1.15;;;7.00;99.90;;;;;;3625683;39;20235;-76
2020/12/28 12:07:23;;;;;;;3.03;0.93;;;7.10;99.90;;;;;;3629160;31;20275;-76
2020/12/28 12:09:50;;;;;;;4.47;4.00;;;7.10;99.90;;;;;;3632653;39;20252;-77
2020/12/28 12:12:17;;;;;;;18.35;7.95;;;7.10;99.90;;;;;;3626854;39;21200;-76
2020/12/28 12:14:44;;;;;;;12.27;7.05;;;7.20;99.90;;;;;;3632390;39;20275;-76
2020/12/28 12:17:38;;;;;;;6.38;2.58;;;7.30;99.90;;;;;;3620770;39;20328;-76
2020/12/28 12:20:06;;;;;;;1.77;1.30;;;7.30;99.90;;;;;;3623996;39;20263;-76
2020/12/28 12:22:32;;;;;;;3.22;2.90;;;7.40;99.90;;;;;;3618617;39;20375;-76
2020/12/28 12:24:58;;;;;;;1.38;1.00;;;7.40;99.90;;;;;;3624783;39;20267;-76
2020/12/28 12:27:25;;;;;;;2.20;1.10;;;7.40;99.90;;;;;;3625856;39;20278;-76
2020/12/28 12:29:51;;;;;;;0.85;0.85;;;7.50;99.90;;;;;;3625295;39;20351;-76
2020/12/28 12:32:18;;;;;;;3.63;1.70;;;7.50;99.90;;;;;;3624462;39;20252;-76
2020/12/28 12:34:44;;;;;;;1.90;0.90;;;7.50;99.90;;;;;;3620367;39;20364;-77
2020/12/28 12:37:13;;;;;;;1.15;1.05;;;7.60;99.90;;;;;;3625026;39;20275;-77
2020/12/28 12:39:39;;;;;;;2.08;1.50;;;7.60;99.90;;;;;;3621514;39;20105;-77
2020/12/28 12:42:06;;;;;;;1.00;0.90;;;7.70;99.90;;;;;;3623315;39;20347;-77
2020/12/28 12:44:32;;;;;;;1.58;0.98;;;7.70;99.90;;;;;;3618911;39;20345;-77
2020/12/28 12:47:01;;;;;;;3.15;1.10;;;7.70;99.90;;;;;;3620158;39;20264;-76
2020/12/28 12:49:28;;;;;;;4.53;1.20;;;7.70;99.90;;;;;;3617734;39;20244;-76
2020/12/28 12:52:20;;;;;;;11.45;1.30;;;7.70;99.90;;;;;;3619978;39;20240;-77
2020/12/28 12:54:47;;;;;;;3.60;1.30;;;7.70;99.90;;;;;;3618367;32;20278;-77
2020/12/28 12:57:14;;;;;;;4.80;1.30;;;7.70;99.90;;;;;;3621256;39;20339;-77
2020/12/28 13:02:21;;;;;;;1.30;1.02;;;7.50;99.90;;;;;;3620663;32;20267;-77
2020/12/28 13:04:48;;;;;;;0.98;0.98;;;7.50;99.90;;;;;;3617573;39;20332;-77
2020/12/28 13:07:14;;;;;;;1.85;1.08;;;7.60;99.90;;;;;;3620949;39;20252;-77
2020/12/28 13:09:42;;;;;;;1.10;1.10;;;7.60;99.90;;;;;;3624160;39;20283;-77
2020/12/28 13:12:08;;;;;;;1.40;1.30;;;7.70;99.90;;;;;;3623523;39;20233;-77
2020/12/28 13:14:35;;;;;;;1.45;1.20;;;7.70;99.90;;;;;;3622407;39;20262;-77
2020/12/28 13:17:01;;;;;;;1.52;1.42;;;7.60;99.90;;;;;;3625464;39;20251;-77
2020/12/28 13:19:27;;;;;;;1.30;1.10;;;7.50;99.90;;;;;;3619144;31;20247;-77
2020/12/28 13:21:54;;;;;;;2.83;1.33;;;7.40;99.90;;;;;;3618054;39;20329;-77
2020/12/28 13:24:21;;;;;;;1.27;1.17;;;7.40;99.90;;;;;;3621088;39;20268;-77
2020/12/28 13:26:49;;;;;;;1.40;1.30;;;7.40;99.90;;;;;;3616757;39;20384;-77
2020/12/28 13:29:15;;;;;;;2.13;1.17;;;7.50;99.90;;;;;;3616826;39;20340;-77
2020/12/28 13:31:42;;;;;;;3.45;1.48;;;7.40;99.90;;;;;;3618476;39;20283;-77